sensor_id;sensor_type;location;lat;lon;timestamp;temperature;humidity
19888;DHT22;10106;51.332;12.336;2023-03-15T00:01:13;2.50;99.90
19888;DHT22;10106;51.332;12.336;2023-03-15T00:03:43;2.50;99.90
19888;DHT22;10106;51.332;12.336;2023-03-15T00:06:10;2.40;99.90
19888;DHT22;10106;51.332;12.336;2023-03-15T00:08:36;2.30;99.90
19888;DHT22;10106;51.332;12.336;2023-03-15T00:11:02;2.30;99.90
19888;DHT22;10106;51.332;12.336;2023-03-15T00:13:29;2.30;99.90
19888;DHT22;10106;51.332;12.336;2023-03-15T00:15:57;2.20;99.90
19888;DHT22;10106;51.332;12.336;2023-03-15T00:18:24;2.10;99.90
19888;DHT22;10106;51.332;12.336;2023-03-15T00:20:50;2.10;99.90
19888;DHT22;10106;51.332;12.336;2023-03-15T00:23:15;2.10;99.90
19888;DHT22;10106;51.332;12.336;2023-03-15T00:25:45;2.00;99.90
19888;DHT22;10106;51.332;12.336;2023-03-15T00:28:11;2.00;99.90
19888;DHT22;10106;51.332;12.336;2023-03-15T00:30:37;2.10;99.90
19888;DHT22;10106;51.332;12.336;2023-03-15T00:33:03;2.10;99.90
19888;DHT22;10106;51.332;12.336;2023-03-15T00:35:32;2.10;99.90
19888;DHT22;10106;51.332;12.336;2023-03-15T00:37:58;2.10;99.90
19888;DHT22;10106;51.332;12.336;2023-03-15T00:40:24;2.20;99.90
19888;DHT22;10106;51.332;12.336;2023-03-15T00:42:50;2.20;99.90
19888;DHT22;10106;51.332;12.336;2023-03-15T00:45:20;2.20;99.90
19888;DHT22;10106;51.332;12.336;2023-03-15T00:47:50;2.30;99.90
19888;DHT22;10106;51.332;12.336;2023-03-15T00:50:16;2.30;99.90
19888;DHT22;10106;51.332;12.336;2023-03-15T00:52:42;2.30;99.90
19888;DHT22;10106;51.332;12.336;2023-03-15T00:55:13;2.30;99.90
19888;DHT22;10106;51.332;12.336;2023-03-15T00:57:43;2.30;99.90
19888;DHT22;10106;51.332;12.336;2023-03-15T01:00:16;2.30;99.90
19888;DHT22;10106;51.332;12.336;2023-03-15T01:02:42;2.30;99.90
19888;DHT22;10106;51.332;12.336;2023-03-15T01:05:08;2.30;99.90
19888;DHT22;10106;51.332;12.336;2023-03-15T01:07:34;2.30;99.90
19888;DHT22;10106;51.332;12.336;2023-03-15T01:10:04;2.30;99.90
19888;DHT22;10106;51.332;12.336;2023-03-15T01:12:31;2.30;99.90
19888;DHT22;10106;51.332;12.336;2023-03-15T01:14:58;2.30;99.90
19888;DHT22;10106;51.332;12.336;2023-03-15T01:17:25;2.30;99.90
19888;DHT22;10106;51.332;12.336;2023-03-15T01:19:50;2.30;99.90
19888;DHT22;10106;51.332;12.336;2023-03-15T01:22:17;2.20;99.90
19888;DHT22;10106;51.332;12.336;2023-03-15T01:24:43;2.20;99.90
19888;DHT22;10106;51.332;12.336;2023-03-15T01:27:09;2.30;99.90
19888;DHT22;10106;51.332;12.336;2023-03-15T01:29:34;2.20;99.90
19888;DHT22;10106;51.332;12.336;2023-03-15T01:32:00;2.20;99.90
19888;DHT22;10106;51.332;12.336;2023-03-15T01:34:29;2.20;99.90
19888;DHT22;10106;51.332;12.336;2023-03-15T01:36:54;2.20;99.90
19888;DHT22;10106;51.332;12.336;2023-03-15T01:39:20;2.10;99.90
19888;DHT22;10106;51.332;12.336;2023-03-15T01:41:46;2.10;99.90
19888;DHT22;10106;51.332;12.336;2023-03-15T01:44:14;2.00;99.90
19888;DHT22;10106;51.332;12.336;2023-03-15T01:46:40;2.00;99.90
19888;DHT22;10106;51.332;12.336;2023-03-15T01:49:11;1.90;99.90
19888;DHT22;10106;51.332;12.336;2023-03-15T01:54:14;1.80;99.90
19888;DHT22;10106;51.332;12.336;2023-03-15T01:56:48;1.70;99.90
19888;DHT22;10106;51.332;12.336;2023-03-15T01:59:21;1.80;99.90
19888;DHT22;10106;51.332;12.336;2023-03-15T02:01:49;1.80;99.90
19888;DHT22;10106;51.332;12.336;2023-03-15T02:04:17;1.70;99.90
19888;DHT22;10106;51.332;12.336;2023-03-15T02:09:16;1.60;99.90
19888;DHT22;10106;51.332;12.336;2023-03-15T02:11:42;1.60;99.90
19888;DHT22;10106;51.332;12.336;2023-03-15T02:14:11;1.60;99.90
19888;DHT22;10106;51.332;12.336;2023-03-15T02:16:37;1.60;99.90
19888;DHT22;10106;51.332;12.336;2023-03-15T02:19:06;1.50;99.90
19888;DHT22;10106;51.332;12.336;2023-03-15T02:22:12;1.40;99.90
19888;DHT22;10106;51.332;12.336;2023-03-15T02:27:38;1.50;99.90
19888;DHT22;10106;51.332;12.336;2023-03-15T02:30:05;1.50;99.90
19888;DHT22;10106;51.332;12.336;2023-03-15T02:32:31;1.50;99.90
19888;DHT22;10106;51.332;12.336;2023-03-15T02:34:57;1.40;99.90
19888;DHT22;10106;51.332;12.336;2023-03-15T02:37:23;1.40;99.90
19888;DHT22;10106;51.332;12.336;2023-03-15T02:39:49;1.40;99.90
19888;DHT22;10106;51.332;12.336;2023-03-15T02:42:15;1.30;99.90
19888;DHT22;10106;51.332;12.336;2023-03-15T02:44:43;1.20;99.90
19888;DHT22;10106;51.332;12.336;2023-03-15T02:47:10;1.20;99.90
19888;DHT22;10106;51.332;12.336;2023-03-15T02:49:41;1.10;99.90
19888;DHT22;10106;51.332;12.336;2023-03-15T02:52:08;1.10;99.90
19888;DHT22;10106;51.332;12.336;2023-03-15T02:54:33;1.00;99.90
19888;DHT22;10106;51.332;12.336;2023-03-15T02:57:00;1.00;99.90
19888;DHT22;10106;51.332;12.336;2023-03-15T02:59:26;0.90;99.90
19888;DHT22;10106;51.332;12.336;2023-03-15T03:01:52;0.90;99.90
19888;DHT22;10106;51.332;12.336;2023-03-15T03:04:18;0.80;99.90
19888;DHT22;10106;51.332;12.336;2023-03-15T03:06:43;0.80;99.90
19888;DHT22;10106;51.332;12.336;2023-03-15T03:09:10;0.70;99.90
19888;DHT22;10106;51.332;12.336;2023-03-15T03:11:36;0.70;99.90
19888;DHT22;10106;51.332;12.336;2023-03-15T03:14:02;0.70;99.90
19888;DHT22;10106;51.332;12.336;2023-03-15T03:16:28;0.60;99.90
19888;DHT22;10106;51.332;12.336;2023-03-15T03:18:54;0.60;99.90
19888;DHT22;10106;51.332;12.336;2023-03-15T03:21:20;0.60;99.90
19888;DHT22;10106;51.332;12.336;2023-03-15T03:23:45;0.50;99.90
19888;DHT22;10106;51.332;12.336;2023-03-15T03:26:13;0.50;99.90
19888;DHT22;10106;51.332;12.336;2023-03-15T03:28:44;0.50;99.90
19888;DHT22;10106;51.332;12.336;2023-03-15T03:31:21;0.50;99.90
19888;DHT22;10106;51.332;12.336;2023-03-15T03:33:47;0.50;99.90
19888;DHT22;10106;51.332;12.336;2023-03-15T03:36:13;0.50;99.90
19888;DHT22;10106;51.332;12.336;2023-03-15T03:38:44;0.50;99.90
19888;DHT22;10106;51.332;12.336;2023-03-15T03:41:11;0.60;99.90
19888;DHT22;10106;51.332;12.336;2023-03-15T03:43:37;0.60;99.90
19888;DHT22;10106;51.332;12.336;2023-03-15T03:46:03;0.60;99.90
19888;DHT22;10106;51.332;12.336;2023-03-15T03:48:30;0.70;99.90
19888;DHT22;10106;51.332;12.336;2023-03-15T03:50:56;0.70;99.90
19888;DHT22;10106;51.332;12.336;2023-03-15T03:53:22;0.70;99.90
19888;DHT22;10106;51.332;12.336;2023-03-15T03:55:47;0.70;99.90
19888;DHT22;10106;51.332;12.336;2023-03-15T03:58:13;0.60;99.90
19888;DHT22;10106;51.332;12.336;2023-03-15T04:00:39;0.70;99.90
19888;DHT22;10106;51.332;12.336;2023-03-15T04:03:06;0.70;99.90
19888;DHT22;10106;51.332;12.336;2023-03-15T04:05:32;0.70;99.90
19888;DHT22;10106;51.332;12.336;2023-03-15T04:07:57;0.70;99.90
19888;DHT22;10106;51.332;12.336;2023-03-15T04:10:23;0.70;99.90
19888;DHT22;10106;51.332;12.336;2023-03-15T04:12:57;0.70;99.90
19888;DHT22;10106;51.332;12.336;2023-03-15T04:15:24;0.70;99.90
19888;DHT22;10106;51.332;12.336;2023-03-15T04:17:50;0.60;99.90
19888;DHT22;10106;51.332;12.336;2023-03-15T04:20:26;0.60;99.90
19888;DHT22;10106;51.332;12.336;2023-03-15T04:22:53;0.60;99.90
19888;DHT22;10106;51.332;12.336;2023-03-15T04:25:19;0.60;99.90
19888;DHT22;10106;51.332;12.336;2023-03-15T04:27:46;0.50;99.90
19888;DHT22;10106;51.332;12.336;2023-03-15T04:30:23;0.50;99.90
19888;DHT22;10106;51.332;12.336;2023-03-15T04:32:51;0.50;99.90
19888;DHT22;10106;51.332;12.336;2023-03-15T04:35:27;0.40;99.90
19888;DHT22;10106;51.332;12.336;2023-03-15T04:37:53;0.40;99.90
19888;DHT22;10106;51.332;12.336;2023-03-15T04:40:20;0.40;99.90
19888;DHT22;10106;51.332;12.336;2023-03-15T04:42:49;0.40;99.90
19888;DHT22;10106;51.332;12.336;2023-03-15T04:45:15;0.40;99.90
19888;DHT22;10106;51.332;12.336;2023-03-15T04:47:41;0.40;99.90
19888;DHT22;10106;51.332;12.336;2023-03-15T04:50:07;0.40;99.90
19888;DHT22;10106;51.332;12.336;2023-03-15T04:52:33;0.40;99.90
19888;DHT22;10106;51.332;12.336;2023-03-15T04:54:58;0.40;99.90
19888;DHT22;10106;51.332;12.336;2023-03-15T04:57:24;0.50;99.90
19888;DHT22;10106;51.332;12.336;2023-03-15T04:59:50;0.40;99.90
19888;DHT22;10106;51.332;12.336;2023-03-15T05:02:15;0.40;99.90
19888;DHT22;10106;51.332;12.336;2023-03-15T05:04:41;0.40;99.90
19888;DHT22;10106;51.332;12.336;2023-03-15T05:07:07;0.40;99.90
19888;DHT22;10106;51.332;12.336;2023-03-15T05:09:33;0.50;99.90
19888;DHT22;10106;51.332;12.336;2023-03-15T05:12:04;0.40;99.90
19888;DHT22;10106;51.332;12.336;2023-03-15T05:14:30;0.40;99.90
19888;DHT22;10106;51.332;12.336;2023-03-15T05:16:57;0.50;99.90
19888;DHT22;10106;51.332;12.336;2023-03-15T05:19:24;0.50;99.90
19888;DHT22;10106;51.332;12.336;2023-03-15T05:21:50;0.60;99.90
19888;DHT22;10106;51.332;12.336;2023-03-15T05:24:16;0.60;99.90
19888;DHT22;10106;51.332;12.336;2023-03-15T05:26:42;0.70;99.90
19888;DHT22;10106;51.332;12.336;2023-03-15T05:29:14;0.70;99.90
19888;DHT22;10106;51.332;12.336;2023-03-15T05:31:42;0.80;99.90
19888;DHT22;10106;51.332;12.336;2023-03-15T05:34:08;0.90;99.90
19888;DHT22;10106;51.332;12.336;2023-03-15T05:36:33;1.00;99.90
19888;DHT22;10106;51.332;12.336;2023-03-15T05:38:59;1.10;99.90
19888;DHT22;10106;51.332;12.336;2023-03-15T05:41:27;1.20;99.90
19888;DHT22;10106;51.332;12.336;2023-03-15T05:43:53;1.30;99.90
19888;DHT22;10106;51.332;12.336;2023-03-15T05:46:19;1.40;99.90
19888;DHT22;10106;51.332;12.336;2023-03-15T05:48:47;1.60;99.90
19888;DHT22;10106;51.332;12.336;2023-03-15T05:51:14;1.60;99.90
19888;DHT22;10106;51.332;12.336;2023-03-15T05:53:40;1.90;99.90
19888;DHT22;10106;51.332;12.336;2023-03-15T05:56:07;2.30;99.90
19888;DHT22;10106;51.332;12.336;2023-03-15T05:58:32;2.60;99.90
19888;DHT22;10106;51.332;12.336;2023-03-15T06:06:09;2.50;99.90
19888;DHT22;10106;51.332;12.336;2023-03-15T06:08:34;2.60;99.90
19888;DHT22;10106;51.332;12.336;2023-03-15T06:11:00;2.60;99.90
19888;DHT22;10106;51.332;12.336;2023-03-15T06:13:26;2.60;99.90
19888;DHT22;10106;51.332;12.336;2023-03-15T06:15:52;2.60;99.90
19888;DHT22;10106;51.332;12.336;2023-03-15T06:18:17;2.60;99.90
19888;DHT22;10106;51.332;12.336;2023-03-15T06:20:43;2.60;99.90
19888;DHT22;10106;51.332;12.336;2023-03-15T06:23:09;2.50;99.90
19888;DHT22;10106;51.332;12.336;2023-03-15T06:25:35;2.50;99.90
19888;DHT22;10106;51.332;12.336;2023-03-15T06:28:01;2.50;99.90
19888;DHT22;10106;51.332;12.336;2023-03-15T06:30:29;2.40;99.90
19888;DHT22;10106;51.332;12.336;2023-03-15T06:32:55;2.40;99.90
19888;DHT22;10106;51.332;12.336;2023-03-15T06:35:21;2.50;99.90
19888;DHT22;10106;51.332;12.336;2023-03-15T06:37:47;2.40;99.90
19888;DHT22;10106;51.332;12.336;2023-03-15T06:40:13;2.40;99.90
19888;DHT22;10106;51.332;12.336;2023-03-15T06:42:39;2.40;99.90
19888;DHT22;10106;51.332;12.336;2023-03-15T06:45:07;2.50;99.90
19888;DHT22;10106;51.332;12.336;2023-03-15T06:47:34;2.50;99.90
19888;DHT22;10106;51.332;12.336;2023-03-15T06:50:00;2.60;99.90
19888;DHT22;10106;51.332;12.336;2023-03-15T06:52:26;2.60;99.90
19888;DHT22;10106;51.332;12.336;2023-03-15T06:54:52;2.70;99.90
19888;DHT22;10106;51.332;12.336;2023-03-15T06:57:17;2.90;99.90
19888;DHT22;10106;51.332;12.336;2023-03-15T06:59:43;2.80;99.90
19888;DHT22;10106;51.332;12.336;2023-03-15T07:02:14;2.80;99.90
19888;DHT22;10106;51.332;12.336;2023-03-15T07:04:40;2.80;99.90
19888;DHT22;10106;51.332;12.336;2023-03-15T07:07:05;2.70;99.90
19888;DHT22;10106;51.332;12.336;2023-03-15T07:09:31;2.70;99.90
19888;DHT22;10106;51.332;12.336;2023-03-15T07:12:00;2.50;99.90
19888;DHT22;10106;51.332;12.336;2023-03-15T07:14:25;2.40;99.90
19888;DHT22;10106;51.332;12.336;2023-03-15T07:16:51;2.40;99.90
19888;DHT22;10106;51.332;12.336;2023-03-15T07:19:17;2.40;99.90
19888;DHT22;10106;51.332;12.336;2023-03-15T07:21:43;2.40;99.90
19888;DHT22;10106;51.332;12.336;2023-03-15T07:24:08;2.30;99.90
19888;DHT22;10106;51.332;12.336;2023-03-15T07:26:34;2.30;99.90
19888;DHT22;10106;51.332;12.336;2023-03-15T07:29:00;2.20;99.90
19888;DHT22;10106;51.332;12.336;2023-03-15T07:31:26;2.20;99.90
19888;DHT22;10106;51.332;12.336;2023-03-15T07:33:52;2.20;99.90
19888;DHT22;10106;51.332;12.336;2023-03-15T07:36:17;2.20;99.90
19888;DHT22;10106;51.332;12.336;2023-03-15T07:38:43;2.20;99.90
19888;DHT22;10106;51.332;12.336;2023-03-15T07:41:09;2.20;99.90
19888;DHT22;10106;51.332;12.336;2023-03-15T07:43:35;2.30;99.90
19888;DHT22;10106;51.332;12.336;2023-03-15T07:46:01;2.30;99.90
19888;DHT22;10106;51.332;12.336;2023-03-15T07:48:27;2.40;99.90
19888;DHT22;10106;51.332;12.336;2023-03-15T07:50:54;2.40;99.90
19888;DHT22;10106;51.332;12.336;2023-03-15T07:53:20;2.40;99.90
19888;DHT22;10106;51.332;12.336;2023-03-15T07:55:47;2.50;99.90
19888;DHT22;10106;51.332;12.336;2023-03-15T07:58:13;2.40;99.90
19888;DHT22;10106;51.332;12.336;2023-03-15T08:00:39;2.50;99.90
19888;DHT22;10106;51.332;12.336;2023-03-15T08:03:05;2.40;99.90
19888;DHT22;10106;51.332;12.336;2023-03-15T08:05:35;2.60;99.90
19888;DHT22;10106;51.332;12.336;2023-03-15T08:08:00;2.70;99.90
19888;DHT22;10106;51.332;12.336;2023-03-15T08:10:26;2.80;99.90
19888;DHT22;10106;51.332;12.336;2023-03-15T08:12:52;3.00;99.90
19888;DHT22;10106;51.332;12.336;2023-03-15T08:15:18;3.20;99.90
19888;DHT22;10106;51.332;12.336;2023-03-15T08:17:46;3.30;99.90
19888;DHT22;10106;51.332;12.336;2023-03-15T08:20:13;3.50;99.90
19888;DHT22;10106;51.332;12.336;2023-03-15T08:22:46;3.60;99.90
19888;DHT22;10106;51.332;12.336;2023-03-15T08:25:14;4.00;99.90
19888;DHT22;10106;51.332;12.336;2023-03-15T08:27:41;4.60;99.90
19888;DHT22;10106;51.332;12.336;2023-03-15T08:30:11;5.10;99.90
19888;DHT22;10106;51.332;12.336;2023-03-15T08:32:38;5.50;99.90
19888;DHT22;10106;51.332;12.336;2023-03-15T08:35:05;5.70;99.90
19888;DHT22;10106;51.332;12.336;2023-03-15T08:37:32;6.20;99.90
19888;DHT22;10106;51.332;12.336;2023-03-15T08:39:58;6.70;99.90
19888;DHT22;10106;51.332;12.336;2023-03-15T08:42:34;6.90;99.90
19888;DHT22;10106;51.332;12.336;2023-03-15T08:45:04;6.80;99.90
19888;DHT22;10106;51.332;12.336;2023-03-15T08:47:35;6.70;99.90
19888;DHT22;10106;51.332;12.336;2023-03-15T08:50:02;7.00;99.90
19888;DHT22;10106;51.332;12.336;2023-03-15T08:52:30;7.10;99.90
19888;DHT22;10106;51.332;12.336;2023-03-15T08:54:56;7.20;99.90
19888;DHT22;10106;51.332;12.336;2023-03-15T08:57:22;7.30;99.90
19888;DHT22;10106;51.332;12.336;2023-03-15T08:59:53;8.10;99.90
19888;DHT22;10106;51.332;12.336;2023-03-15T09:02:20;8.60;99.90
19888;DHT22;10106;51.332;12.336;2023-03-15T09:04:47;9.90;99.90
19888;DHT22;10106;51.332;12.336;2023-03-15T09:07:14;10.70;99.90
19888;DHT22;10106;51.332;12.336;2023-03-15T09:09:40;10.80;99.90
19888;DHT22;10106;51.332;12.336;2023-03-15T09:12:06;12.20;99.90
19888;DHT22;10106;51.332;12.336;2023-03-15T09:14:32;13.60;99.90
19888;DHT22;10106;51.332;12.336;2023-03-15T09:17:08;13.90;99.90
19888;DHT22;10106;51.332;12.336;2023-03-15T09:19:34;13.20;96.50
19888;DHT22;10106;51.332;12.336;2023-03-15T09:21:59;12.90;98.20
19888;DHT22;10106;51.332;12.336;2023-03-15T09:24:26;12.20;99.90
19888;DHT22;10106;51.332;12.336;2023-03-15T09:26:52;12.00;99.90
19888;DHT22;10106;51.332;12.336;2023-03-15T09:29:18;11.70;99.90
19888;DHT22;10106;51.332;12.336;2023-03-15T09:31:43;11.20;99.90
19888;DHT22;10106;51.332;12.336;2023-03-15T09:34:09;10.60;99.90
19888;DHT22;10106;51.332;12.336;2023-03-15T09:36:35;10.40;99.90
19888;DHT22;10106;51.332;12.336;2023-03-15T09:39:01;10.60;99.90
19888;DHT22;10106;51.332;12.336;2023-03-15T09:41:43;11.10;99.90
19888;DHT22;10106;51.332;12.336;2023-03-15T09:55:13;9.20;99.90
19888;DHT22;10106;51.332;12.336;2023-03-15T09:57:58;8.70;99.90
19888;DHT22;10106;51.332;12.336;2023-03-15T10:00:51;8.40;99.90
19888;DHT22;10106;51.332;12.336;2023-03-15T10:06:28;8.30;99.90
19888;DHT22;10106;51.332;12.336;2023-03-15T10:09:05;8.40;99.90
19888;DHT22;10106;51.332;12.336;2023-03-15T10:11:46;8.60;99.90
19888;DHT22;10106;51.332;12.336;2023-03-15T10:14:23;8.60;99.90
19888;DHT22;10106;51.332;12.336;2023-03-15T10:16:52;8.80;99.90
19888;DHT22;10106;51.332;12.336;2023-03-15T10:19:51;9.00;99.90
19888;DHT22;10106;51.332;12.336;2023-03-15T10:25:26;9.10;99.90
19888;DHT22;10106;51.332;12.336;2023-03-15T10:30:35;9.50;99.90
19888;DHT22;10106;51.332;12.336;2023-03-15T10:33:35;9.30;99.90
19888;DHT22;10106;51.332;12.336;2023-03-15T10:36:10;9.10;99.90
19888;DHT22;10106;51.332;12.336;2023-03-15T10:38:41;8.80;99.90
19888;DHT22;10106;51.332;12.336;2023-03-15T10:41:07;8.90;99.90
19888;DHT22;10106;51.332;12.336;2023-03-15T10:43:35;9.00;99.90
19888;DHT22;10106;51.332;12.336;2023-03-15T10:46:10;9.00;99.90
19888;DHT22;10106;51.332;12.336;2023-03-15T10:49:19;8.80;99.90
19888;DHT22;10106;51.332;12.336;2023-03-15T10:51:41;8.70;99.90
19888;DHT22;10106;51.332;12.336;2023-03-15T10:54:15;9.30;99.90
19888;DHT22;10106;51.332;12.336;2023-03-15T10:59:24;9.70;99.90
19888;DHT22;10106;51.332;12.336;2023-03-15T11:01:54;10.10;99.90
19888;DHT22;10106;51.332;12.336;2023-03-15T11:04:32;10.20;99.90
19888;DHT22;10106;51.332;12.336;2023-03-15T11:07:02;9.80;99.90
19888;DHT22;10106;51.332;12.336;2023-03-15T11:09:50;9.60;99.90
19888;DHT22;10106;51.332;12.336;2023-03-15T11:12:22;9.10;99.90
19888;DHT22;10106;51.332;12.336;2023-03-15T11:14:51;8.80;99.90
19888;DHT22;10106;51.332;12.336;2023-03-15T11:17:26;8.40;99.90
19888;DHT22;10106;51.332;12.336;2023-03-15T11:19:55;8.30;99.90
19888;DHT22;10106;51.332;12.336;2023-03-15T11:22:22;8.30;99.90
19888;DHT22;10106;51.332;12.336;2023-03-15T11:24:48;8.20;99.90
19888;DHT22;10106;51.332;12.336;2023-03-15T11:27:16;8.30;99.90
19888;DHT22;10106;51.332;12.336;2023-03-15T11:29:47;8.40;99.90
19888;DHT22;10106;51.332;12.336;2023-03-15T11:32:26;8.20;99.90
19888;DHT22;10106;51.332;12.336;2023-03-15T11:35:57;8.40;99.90
19888;DHT22;10106;51.332;12.336;2023-03-15T11:37:55;8.80;99.90
19888;DHT22;10106;51.332;12.336;2023-03-15T11:40:41;9.20;99.90
19888;DHT22;10106;51.332;12.336;2023-03-15T11:43:18;9.50;99.90
19888;DHT22;10106;51.332;12.336;2023-03-15T11:46:04;9.70;99.90
19888;DHT22;10106;51.332;12.336;2023-03-15T11:48:38;9.70;99.90
19888;DHT22;10106;51.332;12.336;2023-03-15T11:51:07;9.60;99.50
19888;DHT22;10106;51.332;12.336;2023-03-15T11:54:43;9.50;99.40
19888;DHT22;10106;51.332;12.336;2023-03-15T11:56:50;9.20;98.80
19888;DHT22;10106;51.332;12.336;2023-03-15T11:59:39;9.00;99.80
19888;DHT22;10106;51.332;12.336;2023-03-15T12:04:42;8.80;99.10
19888;DHT22;10106;51.332;12.336;2023-03-15T12:09:58;9.00;98.70
19888;DHT22;10106;51.332;12.336;2023-03-15T12:12:58;8.80;96.70
19888;DHT22;10106;51.332;12.336;2023-03-15T12:17:58;8.30;96.80
19888;DHT22;10106;51.332;12.336;2023-03-15T12:23:31;8.10;97.40
19888;DHT22;10106;51.332;12.336;2023-03-15T12:25:58;7.90;98.10
19888;DHT22;10106;51.332;12.336;2023-03-15T12:28:38;7.90;98.80
19888;DHT22;10106;51.332;12.336;2023-03-15T12:31:08;8.10;99.10
19888;DHT22;10106;51.332;12.336;2023-03-15T12:36:20;8.40;98.70
19888;DHT22;10106;51.332;12.336;2023-03-15T12:39:02;8.50;98.90
19888;DHT22;10106;51.332;12.336;2023-03-15T12:41:45;8.50;97.60
19888;DHT22;10106;51.332;12.336;2023-03-15T12:49:27;9.00;98.00
19888;DHT22;10106;51.332;12.336;2023-03-15T12:51:59;9.20;96.90
19888;DHT22;10106;51.332;12.336;2023-03-15T12:57:37;9.50;97.30
19888;DHT22;10106;51.332;12.336;2023-03-15T13:00:27;9.30;96.50
19888;DHT22;10106;51.332;12.336;2023-03-15T13:03:17;8.80;97.20
19888;DHT22;10106;51.332;12.336;2023-03-15T13:08:25;7.90;99.90
19888;DHT22;10106;51.332;12.336;2023-03-15T13:17:17;8.00;97.70
19888;DHT22;10106;51.332;12.336;2023-03-15T13:19:25;8.10;96.40
19888;DHT22;10106;51.332;12.336;2023-03-15T13:24:50;7.70;97.20
19888;DHT22;10106;51.332;12.336;2023-03-15T13:32:46;7.00;99.90
19888;DHT22;10106;51.332;12.336;2023-03-15T13:35:12;6.60;99.90
19888;DHT22;10106;51.332;12.336;2023-03-15T13:37:38;6.50;99.90
19888;DHT22;10106;51.332;12.336;2023-03-15T13:40:12;6.40;99.70
19888;DHT22;10106;51.332;12.336;2023-03-15T13:42:40;6.40;99.60
19888;DHT22;10106;51.332;12.336;2023-03-15T13:45:16;6.40;99.70
19888;DHT22;10106;51.332;12.336;2023-03-15T13:47:43;6.40;99.90
19888;DHT22;10106;51.332;12.336;2023-03-15T13:50:19;6.40;99.70
19888;DHT22;10106;51.332;12.336;2023-03-15T13:52:46;6.40;99.80
19888;DHT22;10106;51.332;12.336;2023-03-15T13:55:14;6.50;99.90
19888;DHT22;10106;51.332;12.336;2023-03-15T13:57:41;6.40;99.70
19888;DHT22;10106;51.332;12.336;2023-03-15T14:00:14;6.20;99.90
19888;DHT22;10106;51.332;12.336;2023-03-15T14:02:54;6.20;99.90
19888;DHT22;10106;51.332;12.336;2023-03-15T14:05:27;6.20;99.90
19888;DHT22;10106;51.332;12.336;2023-03-15T14:08:00;6.30;99.90
19888;DHT22;10106;51.332;12.336;2023-03-15T14:10:33;6.40;99.20
19888;DHT22;10106;51.332;12.336;2023-03-15T14:13:22;6.50;96.90
19888;DHT22;10106;51.332;12.336;2023-03-15T14:15:49;6.60;96.10
19888;DHT22;10106;51.332;12.336;2023-03-15T14:21:29;6.80;92.50
19888;DHT22;10106;51.332;12.336;2023-03-15T14:23:55;6.90;92.80
19888;DHT22;10106;51.332;12.336;2023-03-15T14:26:28;7.00;93.30
19888;DHT22;10106;51.332;12.336;2023-03-15T14:28:56;7.10;93.00
19888;DHT22;10106;51.332;12.336;2023-03-15T14:31:29;7.00;92.80
19888;DHT22;10106;51.332;12.336;2023-03-15T14:34:07;6.90;92.30
19888;DHT22;10106;51.332;12.336;2023-03-15T14:36:42;6.80;92.70
19888;DHT22;10106;51.332;12.336;2023-03-15T14:39:18;6.80;93.50
19888;DHT22;10106;51.332;12.336;2023-03-15T14:41:45;6.90;93.30
19888;DHT22;10106;51.332;12.336;2023-03-15T14:44:10;6.90;93.30
19888;DHT22;10106;51.332;12.336;2023-03-15T14:46:36;6.90;92.70
19888;DHT22;10106;51.332;12.336;2023-03-15T14:49:02;6.80;91.80
19888;DHT22;10106;51.332;12.336;2023-03-15T14:51:28;6.80;92.40
19888;DHT22;10106;51.332;12.336;2023-03-15T14:53:55;6.90;92.20
19888;DHT22;10106;51.332;12.336;2023-03-15T14:56:22;7.10;92.50
19888;DHT22;10106;51.332;12.336;2023-03-15T14:58:50;7.10;90.30
19888;DHT22;10106;51.332;12.336;2023-03-15T15:01:21;7.20;87.50
19888;DHT22;10106;51.332;12.336;2023-03-15T15:03:52;7.30;86.60
19888;DHT22;10106;51.332;12.336;2023-03-15T15:06:19;7.30;86.50
19888;DHT22;10106;51.332;12.336;2023-03-15T15:08:47;7.20;85.80
19888;DHT22;10106;51.332;12.336;2023-03-15T15:11:14;7.00;87.00
19888;DHT22;10106;51.332;12.336;2023-03-15T15:13:40;6.90;87.60
19888;DHT22;10106;51.332;12.336;2023-03-15T15:16:06;6.90;88.70
19888;DHT22;10106;51.332;12.336;2023-03-15T15:18:33;6.80;90.50
19888;DHT22;10106;51.332;12.336;2023-03-15T15:21:16;6.70;92.00
19888;DHT22;10106;51.332;12.336;2023-03-15T15:23:44;6.70;98.10
19888;DHT22;10106;51.332;12.336;2023-03-15T15:26:18;6.40;99.90
19888;DHT22;10106;51.332;12.336;2023-03-15T15:28:44;6.30;99.90
19888;DHT22;10106;51.332;12.336;2023-03-15T15:31:15;6.20;99.90
19888;DHT22;10106;51.332;12.336;2023-03-15T15:33:42;6.20;99.90
19888;DHT22;10106;51.332;12.336;2023-03-15T15:36:24;6.40;99.90
19888;DHT22;10106;51.332;12.336;2023-03-15T15:38:50;6.40;99.90
19888;DHT22;10106;51.332;12.336;2023-03-15T15:41:24;6.50;99.90
19888;DHT22;10106;51.332;12.336;2023-03-15T15:43:50;6.30;99.90
19888;DHT22;10106;51.332;12.336;2023-03-15T15:46:16;6.20;99.90
19888;DHT22;10106;51.332;12.336;2023-03-15T15:48:42;6.00;99.90
19888;DHT22;10106;51.332;12.336;2023-03-15T15:53:40;5.60;99.90
19888;DHT22;10106;51.332;12.336;2023-03-15T15:56:08;5.60;99.90
19888;DHT22;10106;51.332;12.336;2023-03-15T15:58:41;5.50;99.60
19888;DHT22;10106;51.332;12.336;2023-03-15T16:01:11;5.40;99.40
19888;DHT22;10106;51.332;12.336;2023-03-15T16:03:38;5.40;99.90
19888;DHT22;10106;51.332;12.336;2023-03-15T16:06:04;5.30;99.90
19888;DHT22;10106;51.332;12.336;2023-03-15T16:08:34;5.30;99.90
19888;DHT22;10106;51.332;12.336;2023-03-15T16:11:02;5.20;99.90
19888;DHT22;10106;51.332;12.336;2023-03-15T16:13:29;5.20;99.90
19888;DHT22;10106;51.332;12.336;2023-03-15T16:15:55;5.20;99.90
19888;DHT22;10106;51.332;12.336;2023-03-15T16:18:20;5.10;99.90
19888;DHT22;10106;51.332;12.336;2023-03-15T16:20:46;5.10;99.90
19888;DHT22;10106;51.332;12.336;2023-03-15T16:23:17;5.10;99.90
19888;DHT22;10106;51.332;12.336;2023-03-15T16:25:52;5.10;99.90
19888;DHT22;10106;51.332;12.336;2023-03-15T16:28:20;5.00;99.90
19888;DHT22;10106;51.332;12.336;2023-03-15T16:30:46;5.00;99.90
19888;DHT22;10106;51.332;12.336;2023-03-15T16:33:17;5.00;99.90
19888;DHT22;10106;51.332;12.336;2023-03-15T16:35:45;4.90;99.90
19888;DHT22;10106;51.332;12.336;2023-03-15T16:38:17;4.90;99.90
19888;DHT22;10106;51.332;12.336;2023-03-15T16:40:50;4.90;99.90
19888;DHT22;10106;51.332;12.336;2023-03-15T16:43:19;4.80;99.90
19888;DHT22;10106;51.332;12.336;2023-03-15T16:45:45;4.80;99.90
19888;DHT22;10106;51.332;12.336;2023-03-15T16:48:10;4.70;99.90
19888;DHT22;10106;51.332;12.336;2023-03-15T16:50:37;4.70;99.90
19888;DHT22;10106;51.332;12.336;2023-03-15T16:53:06;4.50;99.90
19888;DHT22;10106;51.332;12.336;2023-03-15T16:55:35;4.50;99.90
19888;DHT22;10106;51.332;12.336;2023-03-15T16:58:03;4.40;99.90
19888;DHT22;10106;51.332;12.336;2023-03-15T17:00:35;4.40;99.90
19888;DHT22;10106;51.332;12.336;2023-03-15T17:03:01;4.30;99.90